Time;durP1;ratioP1;P1;durP2;ratioP2;P2;SDS_P1;SDS_P2;PMS_P1;PMS_P2;Temp;Humidity;BMP_temperature;BMP_pressure;BME280_temperature;BME280_humidity;BME280_pressure;Samples;Min_cycle;Max_cycle;Signal;HPM_P1;HPM_P2
2022/09/30 00:03:16;;;;;;;12.05;7.50;;;;;;;7.32;100.00;99802.06;8329238;28;20065;-49
2022/09/30 00:07:16;;;;;;;10.57;7.30;;;;;;;7.25;100.00;99803.59;8327047;28;20045;-50
2022/09/30 00:11:19;;;;;;;11.35;7.90;;;;;;;7.16;100.00;99806.25;8328620;28;20407;-53
2022/09/30 00:15:20;;;;;;;19.05;10.48;;;;;;;7.31;100.00;99799.50;8323738;28;20037;-49
2022/09/30 00:19:20;;;;;;;17.55;9.45;;;;;;;7.14;100.00;99806.38;8347875;28;20492;-53
2022/09/30 00:23:22;;;;;;;16.15;9.02;;;;;;;7.17;100.00;99808.78;8327518;28;20403;-50
2022/09/30 00:27:22;;;;;;;12.48;8.40;;;;;;;7.15;100.00;99808.09;8327861;28;20025;-49
2022/09/30 00:31:26;;;;;;;13.13;8.25;;;;;;;7.10;100.00;99817.53;8327411;28;20049;-51
2022/09/30 00:35:26;;;;;;;11.55;7.80;;;;;;;6.94;100.00;99827.94;8328504;28;20037;-49
2022/09/30 00:39:28;;;;;;;10.73;7.40;;;;;;;6.92;100.00;99829.94;8327596;28;20044;-51
2022/09/30 00:43:52;;;;;;;10.63;7.80;;;;;;;6.89;100.00;99831.03;8326141;28;20251;-51
2022/09/30 00:47:56;;;;;;;13.73;7.68;;;;;;;6.76;100.00;99825.03;8327430;28;20030;-49
2022/09/30 00:51:57;;;;;;;11.73;7.95;;;;;;;6.88;100.00;99832.03;8328258;28;20061;-51
2022/09/30 00:56:02;;;;;;;10.68;7.47;;;;;;;6.81;100.00;99824.63;8326985;28;20033;-49
2022/09/30 01:00:04;;;;;;;15.93;8.10;;;;;;;6.78;100.00;99824.91;8327329;28;20124;-49
2022/09/30 01:04:14;;;;;;;11.02;7.35;;;;;;;6.74;100.00;99827.00;8326655;28;20036;-51
2022/09/30 01:08:17;;;;;;;11.05;7.40;;;;;;;6.69;100.00;99829.25;8326991;28;20029;-49
2022/09/30 01:12:21;;;;;;;9.38;6.90;;;;;;;6.68;100.00;99827.53;8327432;28;20061;-50
2022/09/30 01:16:41;;;;;;;;;;;;;;;6.81;100.00;99833.56;8327189;28;20041;-51
2022/09/30 01:21:12;;;;;;;13.05;7.70;;;;;;;6.44;100.00;99840.41;8361483;28;19927;-49
2022/09/30 01:30:02;;;;;;;9.48;7.63;;;;;;;6.48;100.00;99841.84;8298328;28;20481;-48
2022/09/30 01:34:16;;;;;;;12.47;7.70;;;;;;;6.39;100.00;99837.25;8287371;28;20038;-52
2022/09/30 01:38:56;;;;;;;9.57;7.07;;;;;;;6.54;100.00;99835.94;8286843;28;20112;-50
2022/09/30 01:43:25;;;;;;;12.27;8.65;;;;;;;6.59;100.00;99835.53;8284290;28;20507;-49
2022/09/30 01:47:33;;;;;;;10.02;7.72;;;;;;;6.64;100.00;99833.28;8285163;28;20034;-49
2022/09/30 01:51:42;;;;;;;11.40;8.45;;;;;;;6.80;100.00;99847.94;8279856;28;20038;-50
2022/09/30 01:55:52;;;;;;;9.55;7.50;;;;;;;6.60;100.00;99832.72;8285992;28;20088;-49
2022/09/30 01:59:59;;;;;;;12.18;7.35;;;;;;;6.18;100.00;99843.56;8286680;28;20064;-49
2022/09/30 02:04:08;;;;;;;11.15;7.43;;;;;;;6.25;100.00;99840.25;8284976;28;20117;-49
2022/09/30 02:08:33;;;;;;;16.02;8.10;;;;;;;6.40;100.00;99840.78;8286320;28;20042;-49
2022/09/30 02:12:39;;;;;;;10.20;7.60;;;;;;;6.48;100.00;99841.84;8279648;28;20050;-49
2022/09/30 02:16:48;;;;;;;7.78;6.93;;;;;;;6.15;100.00;99833.97;8284447;28;20030;-50
2022/09/30 02:20:56;;;;;;;11.55;7.15;;;;;;;6.19;100.00;99835.41;8286447;28;20034;-49
2022/09/30 02:25:04;;;;;;;10.05;7.90;;;;;;;6.21;100.00;99838.81;8286100;28;20034;-48
2022/09/30 02:29:12;;;;;;;10.57;8.05;;;;;;;6.24;100.00;99843.91;8285876;28;20381;-49
2022/09/30 02:33:18;;;;;;;9.90;6.97;;;;;;;6.08;100.00;99843.50;8284719;28;20376;-51
2022/09/30 02:37:34;;;;;;;12.82;7.15;;;;;;;6.14;100.00;99845.69;8282738;28;20399;-48
2022/09/30 02:41:44;;;;;;;11.65;7.95;;;;;;;6.19;100.00;99847.97;8263351;28;20049;-50
2022/09/30 02:46:09;;;;;;;12.05;8.00;;;;;;;6.20;100.00;99845.16;8257217;28;20042;-48
2022/09/30 02:50:19;;;;;;;13.68;7.82;;;;;;;6.09;100.00;99850.56;8258450;28;20042;-50
2022/09/30 02:54:34;;;;;;;12.45;7.53;;;;;;;5.99;100.00;99849.66;8262992;28;20376;-49
2022/09/30 02:58:38;;;;;;;15.77;7.40;;;;;;;6.01;100.00;99850.38;8263082;28;20496;-49
2022/09/30 03:02:40;;;;;;;13.88;7.18;;;;;;;6.26;100.00;99852.69;8262941;28;20026;-50
2022/09/30 03:06:41;;;;;;;13.40;7.35;;;;;;;6.15;100.00;99858.09;8262445;28;20034;-49
2022/09/30 03:10:42;;;;;;;11.15;6.90;;;;;;;6.06;100.00;99864.25;8262641;28;20117;-48
2022/09/30 03:15:12;;;;;;;13.40;7.28;;;;;;;5.73;100.00;99858.97;8261874;28;20065;-49
2022/09/30 03:19:39;;;;;;;10.57;6.20;;;;;;;6.01;100.00;99863.81;8260330;28;20500;-48
2022/09/30 03:23:59;;;;;;;7.45;6.30;;;;;;;5.83;100.00;99854.59;8256462;28;20034;-49
2022/09/30 03:28:24;;;;;;;9.77;6.45;;;;;;;5.93;100.00;99860.88;8257694;28;20048;-51
2022/09/30 03:33:04;;;;;;;8.52;6.43;;;;;;;6.00;100.00;99856.72;8262465;28;20053;-51
2022/09/30 03:37:28;;;;;;;8.88;6.05;;;;;;;6.08;100.00;99870.34;8258381;28;20038;-52
2022/09/30 03:41:53;;;;;;;10.85;6.53;;;;;;;6.07;100.00;99879.34;8260222;28;20038;-50
2022/09/30 03:46:05;;;;;;;14.43;8.18;;;;;;;6.14;100.00;99885.94;8256231;28;20050;-50
2022/09/30 03:50:08;;;;;;;11.45;6.28;;;;;;;5.70;100.00;99880.66;8261159;28;20050;-50
2022/09/30 03:54:12;;;;;;;8.47;6.10;;;;;;;5.58;100.00;99890.56;8259813;28;20500;-49
2022/09/30 03:58:13;;;;;;;8.43;6.30;;;;;;;5.67;100.00;99891.63;8250625;28;20042;-52
2022/09/30 04:02:14;;;;;;;7.97;5.85;;;;;;;5.81;100.00;99902.09;8258159;28;20104;-49
2022/09/30 04:06:14;;;;;;;7.25;5.88;;;;;;;5.76;100.00;99906.97;8254337;28;20034;-52
2022/09/30 04:10:14;;;;;;;8.50;6.05;;;;;;;5.45;100.00;99910.44;8255288;28;20471;-51
2022/09/30 04:14:15;;;;;;;9.27;6.25;;;;;;;5.63;100.00;99904.47;8255751;28;20046;-51
2022/09/30 04:18:15;;;;;;;11.57;6.70;;;;;;;5.71;100.00;99915.41;8256821;28;20053;-49
2022/09/30 04:22:16;;;;;;;10.13;7.30;;;;;;;5.71;100.00;99915.41;8255732;28;20042;-50
2022/09/30 04:26:18;;;;;;;13.25;7.18;;;;;;;5.82;100.00;99922.59;8254867;28;20092;-47
2022/09/30 04:30:19;;;;;;;8.80;6.38;;;;;;;5.66;100.00;99922.13;8257287;28;20411;-49
2022/09/30 04:34:19;;;;;;;9.30;7.38;;;;;;;5.67;100.00;99923.81;8256169;28;20061;-47
2022/09/30 04:38:21;;;;;;;11.55;6.88;;;;;;;5.71;100.00;99928.81;8250654;28;20026;-49
2022/09/30 04:42:21;;;;;;;10.65;7.20;;;;;;;5.61;100.00;99932.34;8255186;28;20133;-48
2022/09/30 04:46:21;;;;;;;9.60;7.15;;;;;;;5.76;100.00;99936.47;8256177;28;20060;-51
2022/09/30 04:50:22;;;;;;;7.63;6.28;;;;;;;5.66;100.00;99932.84;8255401;28;20034;-48
2022/09/30 04:54:23;;;;;;;10.50;7.45;;;;;;;5.66;100.00;99932.84;8257268;28;20042;-49
2022/09/30 04:58:25;;;;;;;11.75;8.13;;;;;;;5.69;100.00;99937.97;8256266;28;20061;-48
2022/09/30 05:02:25;;;;;;;9.45;7.22;;;;;;;5.71;100.00;99938.69;8241856;28;20435;-47
2022/09/30 05:06:26;;;;;;;10.40;7.47;;;;;;;5.69;100.00;99943.31;8233860;28;20583;-50
2022/09/30 05:10:27;;;;;;;13.27;7.50;;;;;;;5.66;100.00;99948.94;8250641;28;20294;-49
2022/09/30 05:14:28;;;;;;;11.57;7.00;;;;;;;5.66;100.00;99954.28;8240205;28;20030;-49
2022/09/30 05:18:28;;;;;;;9.73;6.85;;;;;;;5.66;100.00;99956.97;8251481;28;20042;-50
2022/09/30 05:22:29;;;;;;;11.38;7.03;;;;;;;5.65;100.00;99957.97;8240217;28;20089;-52
2022/09/30 05:26:29;;;;;;;12.30;7.05;;;;;;;5.62;100.00;99947.47;8238724;28;20507;-48
2022/09/30 05:30:30;;;;;;;10.02;7.32;;;;;;;5.60;100.00;99946.75;8247538;28;20162;-48
2022/09/30 05:34:30;;;;;;;13.70;7.45;;;;;;;5.62;100.00;99958.19;8250513;28;20046;-49
2022/09/30 05:38:31;;;;;;;11.38;8.25;;;;;;;5.97;100.00;99969.63;8251258;28;20133;-50
2022/09/30 05:42:32;;;;;;;10.80;6.75;;;;;;;5.83;100.00;99984.16;8252123;28;20042;-48
2022/09/30 05:46:33;;;;;;;10.23;7.32;;;;;;;5.76;100.00;99992.78;8234091;28;20489;-49
2022/09/30 05:50:33;;;;;;;9.43;6.55;;;;;;;5.76;100.00;99998.16;8210954;28;20407;-49
2022/09/30 05:54:33;;;;;;;11.98;6.25;;;;;;;5.83;100.00;100002.09;8253726;28;20162;-48
2022/09/30 05:58:36;;;;;;;11.35;6.93;;;;;;;5.80;100.00;100005.84;8245813;28;20031;-49
2022/09/30 06:02:37;;;;;;;10.70;7.00;;;;;;;5.94;100.00;100018.16;8243252;28;20046;-51
2022/09/30 06:06:37;;;;;;;11.63;7.53;;;;;;;6.01;100.00;100019.41;8253216;28;20050;-52
2022/09/30 06:10:41;;;;;;;10.68;6.70;;;;;;;6.02;100.00;100026.47;8246747;28;20507;-49
2022/09/30 06:14:41;;;;;;;10.05;6.68;;;;;;;6.16;100.00;100023.50;8246852;28;20038;-48
2022/09/30 06:18:42;;;;;;;9.57;6.80;;;;;;;6.24;100.00;100021.06;8260788;28;20030;-48
2022/09/30 06:22:42;;;;;;;10.80;6.53;;;;;;;6.35;100.00;100018.34;8261117;28;20038;-49
2022/09/30 06:26:43;;;;;;;11.43;6.90;;;;;;;6.53;100.00;100029.41;8260390;28;20133;-49
2022/09/30 06:30:43;;;;;;;11.18;7.13;;;;;;;6.63;100.00;100038.38;8255420;28;20385;-51
2022/09/30 06:34:44;;;;;;;10.38;6.88;;;;;;;6.91;100.00;100038.63;8244968;28;20519;-50
2022/09/30 06:38:50;;;;;;;12.45;6.05;;;;;;;7.19;100.00;100032.63;8256295;28;20247;-50
2022/09/30 06:42:50;;;;;;;7.53;6.05;;;;;;;7.38;100.00;100046.19;8244797;28;20041;-52
2022/09/30 06:46:52;;;;;;;9.13;6.00;;;;;;;7.57;100.00;100054.34;8252714;28;20043;-49
2022/09/30 06:50:56;;;;;;;14.05;5.82;;;;;;;7.84;100.00;100062.72;8303339;28;20038;-51
2022/09/30 06:54:57;;;;;;;12.55;5.90;;;;;;;7.96;100.00;100072.41;8326419;28;20047;-50
2022/09/30 06:58:57;;;;;;;9.65;5.53;;;;;;;8.16;100.00;100077.88;8322255;28;20037;-50
2022/09/30 07:02:58;;;;;;;11.32;5.32;;;;;;;8.32;100.00;100086.34;8323416;28;20068;-49
2022/09/30 07:06:58;;;;;;;6.28;5.32;;;;;;;8.55;100.00;100079.72;8323120;28;20132;-49
2022/09/30 07:11:03;;;;;;;13.55;5.75;;;;;;;8.92;100.00;100091.56;8323520;28;20568;-49
2022/09/30 07:15:04;;;;;;;5.47;4.40;;;;;;;9.25;100.00;100089.31;8323668;28;20040;-50
2022/09/30 07:19:06;;;;;;;9.82;5.38;;;;;;;8.97;100.00;100097.38;8323596;28;20243;-49
2022/09/30 07:23:06;;;;;;;6.70;4.70;;;;;;;9.40;100.00;100103.19;8322486;28;20088;-53
2022/09/30 07:27:07;;;;;;;6.75;4.57;;;;;;;9.47;98.61;100090.84;8320631;28;20041;-49
2022/09/30 07:31:11;;;;;;;9.30;5.20;;;;;;;9.64;100.00;100092.81;8322769;28;20044;-50
2022/09/30 07:35:11;;;;;;;9.02;5.40;;;;;;;9.84;97.92;100095.31;8320750;28;20041;-48
2022/09/30 07:39:12;;;;;;;11.15;6.00;;;;;;;9.88;99.78;100101.25;8321801;28;20107;-48
2022/09/30 07:43:12;;;;;;;7.13;5.35;;;;;;;10.16;98.75;100094.97;8322519;28;20553;-49
2022/09/30 07:47:14;;;;;;;11.90;5.78;;;;;;;10.28;96.65;100096.44;8319229;28;20045;-49
2022/09/30 07:51:20;;;;;;;9.70;4.95;;;;;;;10.34;95.20;100095.00;8322308;28;20054;-48
2022/09/30 07:55:20;;;;;;;7.32;4.85;;;;;;;10.37;95.30;100098.25;8318514;28;20030;-48
2022/09/30 07:59:21;;;;;;;5.63;5.10;;;;;;;10.66;95.60;100107.06;8319938;28;20036;-48
2022/09/30 08:03:22;;;;;;;8.98;5.88;;;;;;;10.99;94.42;100101.03;8321240;28;20116;-48
2022/09/30 08:07:23;;;;;;;13.40;5.35;;;;;;;11.06;92.31;100102.09;8322155;28;20033;-51
2022/09/30 08:11:24;;;;;;;13.57;5.82;;;;;;;11.22;95.10;100102.25;8320343;28;20111;-51
2022/09/30 08:15:24;;;;;;;10.23;5.70;;;;;;;11.14;92.03;100104.91;8320329;28;20387;-50
2022/09/30 08:19:27;;;;;;;16.30;5.93;;;;;;;11.50;93.05;100101.16;8319182;28;20049;-49
2022/09/30 08:23:28;;;;;;;10.55;6.05;;;;;;;12.24;92.11;100112.38;8312030;28;20107;-49
2022/09/30 08:27:28;;;;;;;9.20;5.60;;;;;;;12.43;90.53;100122.09;8319525;28;20042;-52
2022/09/30 08:31:29;;;;;;;11.40;5.50;;;;;;;12.43;89.97;100116.69;8320716;28;20567;-51
2022/09/30 08:35:29;;;;;;;9.68;5.25;;;;;;;12.83;88.15;100125.84;8320196;28;20366;-49
2022/09/30 08:39:30;;;;;;;15.05;5.07;;;;;;;12.83;89.47;100130.41;8320627;28;20516;-50
2022/09/30 08:43:42;;;;;;;14.50;5.60;;;;;;;12.85;87.59;100117.53;8320476;28;20119;-49
2022/09/30 08:47:57;;;;;;;11.52;5.97;;;;;;;13.31;87.61;100119.72;8319311;28;20038;-52
2022/09/30 08:52:00;;;;;;;12.40;5.88;;;;;;;13.76;84.70;100109.22;8319048;28;20037;-48
2022/09/30 08:56:02;;;;;;;11.68;5.25;;;;;;;13.68;83.84;100111.94;8313060;28;20098;-48
2022/09/30 09:00:09;;;;;;;12.77;5.63;;;;;;;13.83;83.32;100115.66;8319175;28;20421;-48
2022/09/30 09:04:09;;;;;;;13.23;5.25;;;;;;;14.02;84.10;100128.03;8320236;28;20033;-48
2022/09/30 09:08:47;;;;;;;21.70;6.18;;;;;;;15.16;80.78;100120.16;8319788;28;20066;-49
2022/09/30 09:17:57;;;;;;;10.50;5.13;;;;;;;19.94;63.49;100109.41;8308265;28;20041;-51
2022/09/30 09:22:01;;;;;;;6.60;4.30;;;;;;;20.27;60.65;100110.25;8310323;28;20041;-47
2022/09/30 09:26:03;;;;;;;4.97;3.95;;;;;;;21.58;57.96;100111.50;8307813;28;20048;-48
2022/09/30 09:30:11;;;;;;;7.80;3.55;;;;;;;21.31;60.47;100116.31;8302695;28;20089;-49
2022/09/30 09:34:12;;;;;;;6.35;3.78;;;;;;;21.33;59.41;100102.34;8310974;28;20072;-48
2022/09/30 09:38:39;;;;;;;8.75;3.78;;;;;;;21.30;58.84;100105.53;8294012;28;20100;-48
2022/09/30 09:42:56;;;;;;;7.22;4.53;;;;;;;21.80;58.34;100099.09;8312797;28;20053;-50
2022/09/30 09:47:12;;;;;;;12.30;4.32;;;;;;;22.29;57.18;100099.09;8303965;28;20049;-48
2022/09/30 09:51:25;;;;;;;10.07;4.78;;;;;;;21.67;58.38;100104.66;8309838;28;20487;-49
2022/09/30 09:55:25;;;;;;;6.88;4.32;;;;;;;22.78;55.96;100099.03;8296651;28;20132;-52
2022/09/30 09:59:25;;;;;;;6.43;3.30;;;;;;;22.53;54.74;100095.50;8297961;28;20040;-50
2022/09/30 10:03:26;;;;;;;5.85;3.15;;;;;;;23.46;53.67;100090.56;8311376;28;20029;-50
2022/09/30 10:07:29;;;;;;;9.43;3.65;;;;;;;24.73;49.50;100099.94;8311279;28;20029;-49
2022/09/30 10:11:29;;;;;;;8.85;3.13;;;;;;;23.95;50.45;100106.81;8308698;28;20061;-52
2022/09/30 10:15:30;;;;;;;7.13;3.42;;;;;;;24.01;50.90;100090.16;8311094;28;20046;-50
2022/09/30 10:19:33;;;;;;;5.55;2.92;;;;;;;24.94;50.01;100093.75;8311523;28;20040;-49
2022/09/30 10:23:37;;;;;;;3.60;3.03;;;;;;;23.82;51.76;100090.44;8312146;28;20478;-48
2022/09/30 10:27:48;;;;;;;9.27;3.85;;;;;;;24.04;51.50;100083.31;8297617;28;20042;-52
2022/09/30 10:31:56;;;;;;;5.15;3.00;;;;;;;24.36;50.50;100081.88;8290623;28;20057;-48
2022/09/30 10:36:05;;;;;;;7.10;3.08;;;;;;;24.79;50.21;100087.88;8283518;28;20072;-49
2022/09/30 10:40:11;;;;;;;5.63;3.17;;;;;;;24.33;51.59;100083.19;8288722;28;20066;-50
2022/09/30 10:44:18;;;;;;;4.30;3.15;;;;;;;24.59;49.75;100081.88;8289579;28;20076;-48
2022/09/30 10:48:23;;;;;;;4.97;2.97;;;;;;;25.31;49.12;100081.22;8272427;28;20120;-53
2022/09/30 10:52:25;;;;;;;;;;;;;;;25.46;47.44;100077.97;8285509;28;20095;-50
2022/09/30 10:56:40;;;;;;;4.55;2.95;;;;;;;24.63;48.18;100088.59;8283243;28;19932;-53
2022/09/30 11:00:42;;;;;;;5.32;2.60;;;;;;;24.39;49.17;100081.38;8289922;28;20033;-49
2022/09/30 11:04:50;;;;;;;5.82;2.28;;;;;;;26.89;45.83;100081.78;8289189;28;20037;-51
2022/09/30 11:09:13;;;;;;;3.67;1.85;;;;;;;26.12;45.03;100090.00;8287641;28;20038;-48
2022/09/30 11:13:45;;;;;;;3.43;2.40;;;;;;;23.05;49.66;100083.84;8288224;28;20037;-50
2022/09/30 11:18:16;;;;;;;4.78;2.45;;;;;;;20.04;55.85;100093.38;8267205;28;20100;-49
2022/09/30 11:22:43;;;;;;;4.65;2.20;;;;;;;21.95;54.14;100102.38;8289194;28;20038;-48
2022/09/30 11:27:07;;;;;;;5.40;2.20;;;;;;;23.94;48.69;100088.53;8269012;28;20062;-53
2022/09/30 11:35:58;;;;;;;5.22;1.80;;;;;;;26.34;45.34;100079.84;8249589;28;20401;-48
2022/09/30 11:40:23;;;;;;;4.55;1.25;;;;;;;27.43;43.67;100086.34;8221099;28;20051;-50
2022/09/30 11:44:33;;;;;;;2.38;1.50;;;;;;;26.95;41.91;100083.53;8221318;28;20045;-48
2022/09/30 11:48:48;;;;;;;3.17;1.40;;;;;;;26.41;44.02;100082.44;8245831;28;20047;-48
2022/09/30 11:53:21;;;;;;;3.33;1.92;;;;;;;27.35;43.31;100084.06;8235718;28;20038;-51
2022/09/30 11:57:46;;;;;;;2.53;1.13;;;;;;;27.37;42.89;100065.19;8257356;28;20058;-49
2022/09/30 12:01:50;;;;;;;6.63;1.77;;;;;;;24.67;47.88;100074.06;8221680;28;20039;-49
2022/09/30 12:05:57;;;;;;;4.82;1.77;;;;;;;26.79;45.17;100069.44;8249154;28;20244;-48
2022/09/30 12:10:06;;;;;;;5.10;1.10;;;;;;;28.20;41.55;100065.47;8223693;28;20046;-52
2022/09/30 12:14:19;;;;;;;2.80;1.00;;;;;;;27.82;40.71;100051.78;8225564;28;20433;-51
2022/09/30 12:18:41;;;;;;;3.20;1.63;;;;;;;27.15;44.96;100053.25;8221042;28;20053;-49
2022/09/30 12:22:45;;;;;;;2.25;1.13;;;;;;;27.14;43.75;100051.56;8216775;28;20038;-49
2022/09/30 12:26:46;;;;;;;;;;;;;;;28.26;41.88;100056.06;8190835;28;20398;-52
2022/09/30 12:30:49;;;;;;;4.38;1.40;;;;;;;26.57;43.39;100048.28;8217263;28;19926;-49
2022/09/30 12:35:29;;;;;;;3.10;1.30;;;;;;;27.03;44.21;100046.97;8247154;28;20552;-52
2022/09/30 12:39:51;;;;;;;3.25;1.38;;;;;;;26.67;43.69;100037.34;8248322;28;20057;-50
2022/09/30 12:44:31;;;;;;;2.63;1.30;;;;;;;23.85;47.38;100034.72;8239810;28;20125;-49
2022/09/30 12:48:37;;;;;;;3.33;1.08;;;;;;;21.27;52.07;100026.22;8220428;28;22492;-48
2022/09/30 12:52:38;;;;;;;5.03;1.33;;;;;;;20.85;53.72;100027.69;8192938;28;20031;-52
2022/09/30 12:56:42;;;;;;;5.35;1.38;;;;;;;20.42;56.12;100025.75;8193594;28;20101;-49
2022/09/30 13:00:57;;;;;;;;;;;;;;;20.70;55.93;100018.03;8198580;28;20066;-50
2022/09/30 13:05:38;;;;;;;2.90;1.25;;;;;;;20.65;52.75;100012.38;8227156;28;20360;-49
2022/09/30 13:09:57;;;;;;;1.35;0.70;;;;;;;20.22;54.09;100003.00;8226247;28;20039;-49
2022/09/30 13:14:11;;;;;;;23.90;2.55;;;;;;;20.33;52.81;100010.56;8227055;28;20054;-50
2022/09/30 13:22:55;;;;;;;2.22;0.88;;;;;;;20.38;51.94;100010.75;8314153;27;20782;-48
2022/09/30 13:27:08;;;;;;;2.67;0.90;;;;;;;20.00;53.59;99998.78;8304858;28;20046;-48
2022/09/30 13:31:24;;;;;;;1.67;1.10;;;;;;;19.75;53.39;99995.00;8312408;28;20513;-49
2022/09/30 13:35:47;;;;;;;1.63;0.90;;;;;;;19.47;53.48;99992.50;8315397;28;20171;-48
2022/09/30 13:39:53;;;;;;;2.33;0.98;;;;;;;19.48;55.62;99983.19;8311305;28;20788;-50
2022/09/30 13:44:08;;;;;;;1.80;0.80;;;;;;;19.61;53.91;99987.84;8307547;28;20069;-52
2022/09/30 13:48:31;;;;;;;2.22;0.90;;;;;;;19.62;55.28;99984.03;8311170;28;20041;-51
2022/09/30 13:52:34;;;;;;;1.60;0.90;;;;;;;19.67;53.13;99973.28;8313841;28;20042;-51
2022/09/30 13:56:39;;;;;;;7.47;1.38;;;;;;;19.41;52.70;99983.22;8316526;28;20037;-52
2022/09/30 14:01:06;;;;;;;1.83;0.90;;;;;;;19.63;52.86;99972.88;8316289;28;20069;-49
2022/09/30 14:10:15;;;;;;;1.73;0.63;;;;;;;19.89;54.12;99966.50;8390850;27;20459;-47
2022/09/30 14:14:49;;;;;;;1.88;0.70;;;;;;;19.76;52.15;99958.31;8414779;28;20112;-47
2022/09/30 14:19:14;;;;;;;1.17;0.65;;;;;;;19.77;53.32;99954.50;8385463;28;20041;-51
2022/09/30 14:23:17;;;;;;;1.58;0.90;;;;;;;19.40;53.13;99959.56;8382645;28;20032;-48
2022/09/30 14:31:51;;;;;;;1.48;0.98;;;;;;;19.91;51.82;99946.03;8323375;27;20135;-50
2022/09/30 14:35:53;;;;;;;1.42;1.00;;;;;;;19.74;53.05;99949.44;8312782;28;20548;-48
2022/09/30 14:39:54;;;;;;;6.03;1.00;;;;;;;19.24;53.76;99953.63;8330112;28;20458;-51
2022/09/30 14:43:58;;;;;;;2.03;0.90;;;;;;;19.01;54.53;99954.06;8329291;28;20062;-49
2022/09/30 14:48:06;;;;;;;2.00;1.00;;;;;;;18.89;55.74;99947.50;8319718;28;20384;-48
2022/09/30 14:52:35;;;;;;;1.40;0.80;;;;;;;18.93;56.05;99937.81;8334824;28;20418;-49
2022/09/30 14:56:36;;;;;;;3.83;1.00;;;;;;;19.14;56.08;99937.63;8327081;28;20033;-49
2022/09/30 15:00:36;;;;;;;1.70;1.20;;;;;;;18.96;56.04;99934.66;8325159;28;20048;-48
2022/09/30 15:04:41;;;;;;;3.58;1.33;;;;;;;18.71;56.23;99940.91;8322472;28;20347;-50
2022/09/30 15:08:43;;;;;;;2.10;0.90;;;;;;;18.58;56.65;99935.41;8336369;28;20037;-48
2022/09/30 15:12:44;;;;;;;1.70;0.70;;;;;;;18.53;57.43;99935.16;8315563;28;20457;-48
2022/09/30 15:16:48;;;;;;;1.77;1.02;;;;;;;18.40;58.30;99938.72;8326438;28;20041;-49
2022/09/30 15:20:50;;;;;;;1.23;0.90;;;;;;;18.19;59.19;99919.66;8326155;28;20034;-49
2022/09/30 15:24:52;;;;;;;2.75;1.10;;;;;;;18.33;59.22;99926.84;8316041;28;20041;-48
2022/09/30 15:28:53;;;;;;;2.63;1.20;;;;;;;18.52;57.89;99926.13;8328305;28;20112;-49
2022/09/30 15:32:57;;;;;;;3.72;1.13;;;;;;;18.63;57.95;99917.28;8319728;28;20697;-51
2022/09/30 15:37:10;;;;;;;2.22;0.70;;;;;;;18.50;58.15;99910.94;8335604;28;20048;-48
2022/09/30 15:41:11;;;;;;;5.07;0.88;;;;;;;18.45;59.36;99927.16;8319906;28;20037;-49
2022/09/30 15:45:34;;;;;;;3.25;1.20;;;;;;;18.49;58.69;99923.81;8312263;28;20479;-49
2022/09/30 15:53:50;;;;;;;2.17;1.13;;;;;;;18.51;57.76;99921.69;8394163;27;20395;-48
2022/09/30 15:57:51;;;;;;;2.55;1.50;;;;;;;18.45;57.40;99936.19;8396761;28;20044;-48
2022/09/30 16:01:55;;;;;;;2.75;1.30;;;;;;;18.54;57.37;99934.13;8407121;28;20358;-49
2022/09/30 16:06:14;;;;;;;2.38;1.00;;;;;;;18.44;58.22;99939.97;8386755;28;20037;-47
2022/09/30 16:10:19;;;;;;;1.63;0.98;;;;;;;18.19;59.45;99936.06;8412609;28;20040;-48
2022/09/30 16:14:25;;;;;;;2.88;1.27;;;;;;;18.08;60.77;99938.53;8415361;28;20044;-52
2022/09/30 16:18:29;;;;;;;4.20;1.00;;;;;;;17.87;60.87;99931.25;8405915;28;20036;-47
2022/09/30 16:26:56;;;;;;;1.83;0.95;;;;;;;17.59;61.07;99950.44;8334970;28;20405;-51
2022/09/30 16:30:57;;;;;;;1.95;0.90;;;;;;;17.58;60.45;99950.63;8300496;28;20045;-50
2022/09/30 16:34:57;;;;;;;2.92;1.10;;;;;;;17.44;61.44;99957.03;8315643;28;20029;-48
2022/09/30 16:38:58;;;;;;;1.75;1.13;;;;;;;17.41;61.52;99962.84;8329217;28;20121;-48
2022/09/30 16:42:58;;;;;;;1.73;1.13;;;;;;;17.37;62.36;99967.03;8326588;28;20091;-50
2022/09/30 16:47:00;;;;;;;1.40;1.00;;;;;;;17.38;61.83;99960.50;8324977;28;20041;-49
2022/09/30 16:55:14;;;;;;;2.75;1.48;;;;;;;17.34;63.40;99953.75;8343289;28;20394;-49
2022/09/30 16:59:16;;;;;;;2.80;1.17;;;;;;;17.13;63.54;99956.50;8340039;28;20051;-48
2022/09/30 17:03:17;;;;;;;4.05;1.35;;;;;;;16.94;64.26;99955.31;8328181;28;20423;-50
2022/09/30 17:07:18;;;;;;;2.45;1.50;;;;;;;16.78;65.28;99957.44;8335580;28;20128;-51
2022/09/30 17:11:25;;;;;;;4.45;1.50;;;;;;;16.53;66.33;99956.09;8333778;28;20048;-49
2022/09/30 17:15:27;;;;;;;2.08;1.40;;;;;;;16.22;67.79;99955.50;8335239;28;20042;-48
2022/09/30 17:19:29;;;;;;;4.35;1.48;;;;;;;15.99;69.02;99954.75;8349011;28;20044;-49
2022/09/30 17:23:29;;;;;;;2.45;1.50;;;;;;;15.76;69.43;99962.19;8349610;28;20581;-51
2022/09/30 17:27:30;;;;;;;1.90;1.40;;;;;;;15.61;70.44;99964.88;8345816;28;20037;-49
2022/09/30 17:31:30;;;;;;;3.03;1.70;;;;;;;15.50;70.92;99963.44;8312950;28;20042;-47
2022/09/30 17:35:32;;;;;;;8.30;1.63;;;;;;;15.34;71.68;99969.03;8284935;28;20511;-48
2022/09/30 17:39:32;;;;;;;2.53;2.20;;;;;;;15.20;71.79;99961.69;8297277;28;20042;-48
2022/09/30 17:43:33;;;;;;;5.85;3.60;;;;;;;15.10;71.64;99958.34;8316434;28;20548;-47
2022/09/30 17:47:33;;;;;;;3.38;2.88;;;;;;;14.99;71.81;99961.50;8314991;28;20502;-50
2022/09/30 17:51:36;;;;;;;4.65;2.67;;;;;;;14.88;72.65;99972.81;8308778;28;20037;-49
2022/09/30 17:55:36;;;;;;;8.30;3.17;;;;;;;14.79;72.80;99973.91;8310955;28;20064;-50
2022/09/30 17:59:37;;;;;;;3.57;2.57;;;;;;;14.73;72.08;99969.19;8314367;28;20030;-48
2022/09/30 18:03:37;;;;;;;3.72;2.75;;;;;;;14.76;71.89;99973.44;8304180;28;20277;-48
2022/09/30 18:07:38;;;;;;;2.63;2.42;;;;;;;14.72;71.45;99956.59;8284558;28;20496;-49
2022/09/30 18:11:38;;;;;;;7.30;4.30;;;;;;;14.67;71.53;99967.19;8259808;28;20164;-48
2022/09/30 18:15:39;;;;;;;12.57;5.90;;;;;;;14.57;72.43;99973.88;8266556;28;20504;-51
2022/09/30 18:19:39;;;;;;;19.77;8.10;;;;;;;14.42;73.08;99965.63;8280590;28;20038;-48
2022/09/30 18:23:40;;;;;;;19.80;9.40;;;;;;;14.19;74.11;99964.72;8301499;28;20491;-47
2022/09/30 18:27:40;;;;;;;16.58;7.95;;;;;;;14.06;74.50;99969.03;8307987;28;20048;-49
2022/09/30 18:31:41;;;;;;;11.50;5.97;;;;;;;13.84;75.46;99978.78;8300824;28;20038;-47
2022/09/30 18:35:42;;;;;;;6.60;4.30;;;;;;;13.84;75.76;99984.19;8309758;28;20273;-51
2022/09/30 18:39:43;;;;;;;6.80;3.42;;;;;;;13.72;76.14;99982.88;8302111;28;20121;-49
2022/09/30 18:43:44;;;;;;;4.43;2.70;;;;;;;13.72;76.16;99991.03;8286227;28;20072;-47
2022/09/30 18:47:44;;;;;;;5.53;3.00;;;;;;;13.69;76.70;99994.09;8271768;28;20050;-47
2022/09/30 18:51:45;;;;;;;3.60;3.15;;;;;;;13.60;77.20;99995.97;8277196;28;20096;-48
2022/09/30 18:55:46;;;;;;;3.30;3.00;;;;;;;13.61;76.60;100003.09;8267701;28;20504;-49
2022/09/30 18:59:47;;;;;;;3.22;2.65;;;;;;;13.57;77.21;100003.63;8290348;28;20044;-49
2022/09/30 19:03:47;;;;;;;4.50;3.00;;;;;;;13.61;77.17;100002.28;8288818;28;20061;-51
2022/09/30 19:07:48;;;;;;;5.60;2.85;;;;;;;13.53;77.77;99994.13;8292480;28;20038;-48
2022/09/30 19:11:50;;;;;;;4.85;2.85;;;;;;;13.45;77.97;99983.28;8283443;28;20037;-47
2022/09/30 19:15:50;;;;;;;3.35;2.50;;;;;;;13.41;78.42;99985.50;8276872;28;20054;-48
2022/09/30 19:19:51;;;;;;;3.17;2.80;;;;;;;13.32;78.89;99980.22;8291048;28;20026;-48
2022/09/30 19:23:57;;;;;;;4.10;2.47;;;;;;;13.33;78.72;99966.47;8290191;28;20439;-51
2022/09/30 19:27:58;;;;;;;3.63;2.25;;;;;;;13.27;78.59;99955.47;8309973;28;20137;-48
2022/09/30 19:31:59;;;;;;;3.45;2.00;;;;;;;13.29;78.66;99958.84;8269201;28;20350;-49
2022/09/30 19:36:01;;;;;;;4.75;2.22;;;;;;;13.39;77.74;99956.81;8275229;28;20465;-48
2022/09/30 19:40:04;;;;;;;4.03;1.67;;;;;;;13.55;76.63;99967.66;8281995;28;20038;-48
2022/09/30 19:44:05;;;;;;;2.67;1.70;;;;;;;13.61;76.31;99958.81;8287886;28;20462;-47
2022/09/30 19:48:06;;;;;;;2.08;1.70;;;;;;;13.63;75.97;99957.59;8280187;28;20103;-47
2022/09/30 19:52:06;;;;;;;2.47;1.90;;;;;;;13.61;76.24;99958.81;8283300;28;20428;-51
2022/09/30 19:56:11;;;;;;;1.98;1.67;;;;;;;13.45;76.97;99948.81;8286730;28;20046;-48